createdAt,value
2023-01-20T00:01:38.947Z,73.40
2023-01-20T00:04:07.553Z,73.30
2023-01-20T00:06:35.949Z,73.30
2023-01-20T00:09:06.361Z,73.30
2023-01-20T00:11:34.924Z,73.20
2023-01-20T00:14:03.971Z,73.20
2023-01-20T00:16:33.492Z,73.20
2023-01-20T00:19:01.879Z,73.20
2023-01-20T00:21:30.348Z,73.10
2023-01-20T00:23:58.503Z,73.20
2023-01-20T00:26:28.334Z,73.30
2023-01-20T00:28:57.772Z,73.30
2023-01-20T00:31:27.831Z,73.30
2023-01-20T00:33:58.076Z,73.20
2023-01-20T00:36:28.440Z,73.30
2023-01-20T00:38:56.586Z,73.10
2023-01-20T00:41:25.206Z,72.90
2023-01-20T00:43:54.726Z,72.80
2023-01-20T00:46:23.400Z,72.80
2023-01-20T00:48:51.558Z,72.60
2023-01-20T00:51:19.910Z,72.60
2023-01-20T00:53:48.039Z,72.30
2023-01-20T00:56:16.169Z,72.20
2023-01-20T00:58:45.382Z,72.00
2023-01-20T01:01:16.370Z,71.90
2023-01-20T01:03:45.668Z,72.00
2023-01-20T01:06:16.768Z,72.10
2023-01-20T01:08:45.655Z,72.30
2023-01-20T01:11:14.609Z,72.00
2023-01-20T01:13:42.997Z,71.80
2023-01-20T01:16:14.688Z,71.40
2023-01-20T01:18:43.164Z,71.50
2023-01-20T01:21:13.401Z,71.60
2023-01-20T01:23:41.565Z,71.50
2023-01-20T01:26:10.503Z,71.60
2023-01-20T01:28:38.763Z,71.80
2023-01-20T01:31:08.537Z,71.80
2023-01-20T01:33:38.059Z,71.90
2023-01-20T01:36:08.603Z,71.80
2023-01-20T01:38:39.191Z,72.10
2023-01-20T01:41:13.496Z,72.20
2023-01-20T01:44:10.374Z,72.20
2023-01-20T01:46:43.981Z,72.30
2023-01-20T01:49:24.958Z,72.30
2023-01-20T01:51:59.895Z,72.30
2023-01-20T01:54:36.960Z,72.30
2023-01-20T01:57:07.575Z,72.20
2023-01-20T01:59:39.085Z,72.30
2023-01-20T02:02:09.413Z,72.20
2023-01-20T02:04:45.253Z,72.10
2023-01-20T02:07:21.526Z,72.30
2023-01-20T02:09:51.187Z,72.20
2023-01-20T02:12:27.469Z,72.20
2023-01-20T02:15:02.871Z,72.10
2023-01-20T02:17:37.200Z,71.90
2023-01-20T02:20:40.479Z,71.70
2023-01-20T02:23:16.982Z,71.60
2023-01-20T02:26:20.942Z,71.40
2023-01-20T02:29:34.064Z,71.30
2023-01-20T02:32:23.092Z,71.30
2023-01-20T02:34:59.054Z,71.10
2023-01-20T02:37:31.284Z,71.00
2023-01-20T02:40:14.160Z,70.90
2023-01-20T02:42:51.905Z,70.70
2023-01-20T02:45:25.468Z,70.60
2023-01-20T02:48:23.881Z,70.40
2023-01-20T02:51:03.626Z,70.40
2023-01-20T02:53:37.848Z,70.40
2023-01-20T02:56:07.632Z,70.30
2023-01-20T02:58:43.163Z,70.20
2023-01-20T03:01:21.157Z,70.20
2023-01-20T03:03:57.696Z,70.30
2023-01-20T03:06:35.065Z,70.30
2023-01-20T03:09:10.765Z,70.20
2023-01-20T03:11:45.409Z,70.20
2023-01-20T03:14:16.030Z,70.50
2023-01-20T03:16:48.476Z,70.60
2023-01-20T03:19:20.610Z,70.70
2023-01-20T03:21:53.785Z,70.60
2023-01-20T03:24:23.346Z,70.60
2023-01-20T03:26:53.679Z,70.70
2023-01-20T03:29:27.629Z,70.80
2023-01-20T03:32:08.715Z,70.70
2023-01-20T03:34:43.412Z,70.80
2023-01-20T03:37:14.181Z,70.80
2023-01-20T03:39:44.764Z,70.90
2023-01-20T03:42:20.066Z,70.90
2023-01-20T03:45:03.550Z,70.90
2023-01-20T03:47:48.073Z,71.00
2023-01-20T03:50:36.760Z,71.00
2023-01-20T03:53:13.505Z,70.90
2023-01-20T03:55:47.385Z,70.80
2023-01-20T03:58:20.718Z,70.60
2023-01-20T04:00:54.508Z,70.70
2023-01-20T04:03:28.725Z,70.70
2023-01-20T04:06:01.569Z,70.70
2023-01-20T04:08:43.288Z,70.90
2023-01-20T04:11:13.278Z,70.90
2023-01-20T04:13:45.019Z,70.80
2023-01-20T04:16:20.533Z,70.90
2023-01-20T04:18:53.491Z,70.90
2023-01-20T04:21:30.478Z,70.90
2023-01-20T04:24:06.414Z,70.80
2023-01-20T04:26:37.030Z,70.70
2023-01-20T04:29:13.088Z,70.60
2023-01-20T04:31:42.684Z,70.70
2023-01-20T04:34:13.946Z,70.70
2023-01-20T04:36:48.239Z,70.70
2023-01-20T04:39:18.655Z,70.70
2023-01-20T04:41:58.115Z,70.70
2023-01-20T04:44:28.889Z,70.70
2023-01-20T04:47:00.087Z,71.00
2023-01-20T04:49:29.647Z,71.00
2023-01-20T04:51:59.896Z,71.00
2023-01-20T04:54:29.266Z,71.20
2023-01-20T04:56:58.980Z,71.40
2023-01-20T04:59:28.356Z,71.30
2023-01-20T05:01:56.610Z,71.40
2023-01-20T05:04:28.037Z,71.30
2023-01-20T05:06:58.301Z,71.60
2023-01-20T05:09:29.307Z,71.70
2023-01-20T05:11:58.710Z,71.60
2023-01-20T05:14:30.463Z,71.70
2023-01-20T05:16:58.791Z,71.70
2023-01-20T05:19:26.962Z,71.70
2023-01-20T05:21:55.408Z,71.90
2023-01-20T05:24:26.975Z,71.90
2023-01-20T05:27:01.686Z,72.10
2023-01-20T05:29:30.215Z,72.10
2023-01-20T05:32:00.489Z,72.20
2023-01-20T05:34:31.225Z,72.20
2023-01-20T05:37:01.234Z,72.30
2023-01-20T05:39:30.140Z,72.40
2023-01-20T05:41:59.655Z,72.50
2023-01-20T05:44:31.423Z,72.50
2023-01-20T05:46:59.538Z,72.60
2023-01-20T05:49:27.699Z,72.60
2023-01-20T05:51:57.292Z,72.70
2023-01-20T05:54:28.326Z,72.80
2023-01-20T05:56:56.791Z,72.90
2023-01-20T05:59:26.666Z,73.00
2023-01-20T06:01:58.571Z,73.10
2023-01-20T06:04:30.763Z,72.90
2023-01-20T06:07:00.314Z,73.00
2023-01-20T06:09:28.431Z,73.00
2023-01-20T06:11:56.547Z,73.00
2023-01-20T06:14:30.864Z,73.10
2023-01-20T06:17:01.400Z,72.90
2023-01-20T06:19:29.560Z,72.80
2023-01-20T06:21:58.985Z,72.80
2023-01-20T06:24:29.579Z,72.70
2023-01-20T06:26:59.167Z,72.70
2023-01-20T06:29:28.693Z,72.60
2023-01-20T06:31:57.229Z,72.60
2023-01-20T06:34:28.006Z,72.60
2023-01-20T06:36:58.394Z,72.60
2023-01-20T06:39:26.664Z,72.60
2023-01-20T06:41:58.868Z,72.40
2023-01-20T06:44:29.861Z,72.40
2023-01-20T06:46:59.285Z,72.40
2023-01-20T06:49:28.470Z,72.40
2023-01-20T06:51:57.876Z,72.20
2023-01-20T06:54:27.267Z,72.00
2023-01-20T06:56:55.997Z,71.90
2023-01-20T06:59:26.423Z,71.90
2023-01-20T07:01:56.512Z,72.00
2023-01-20T07:04:28.233Z,71.90
2023-01-20T07:06:58.389Z,72.00
2023-01-20T07:09:27.997Z,72.20
2023-01-20T07:11:56.302Z,72.20
2023-01-20T07:14:24.677Z,72.20
2023-01-20T07:16:52.880Z,72.20
2023-01-20T07:19:26.330Z,72.40
2023-01-20T07:21:56.953Z,72.30
2023-01-20T07:24:28.679Z,72.20
2023-01-20T07:26:56.818Z,72.20
2023-01-20T07:29:27.485Z,72.10
2023-01-20T07:31:56.125Z,72.20
2023-01-20T07:34:33.400Z,72.10
2023-01-20T07:37:02.794Z,72.00
2023-01-20T07:39:33.580Z,72.00
2023-01-20T07:42:02.832Z,72.00
2023-01-20T07:44:30.953Z,71.90
2023-01-20T07:47:00.427Z,71.70
2023-01-20T07:49:31.111Z,71.40
2023-01-20T07:52:01.327Z,71.50
2023-01-20T07:54:37.701Z,71.40
2023-01-20T07:57:05.951Z,71.50
2023-01-20T07:59:34.055Z,71.40
2023-01-20T08:02:04.716Z,71.30
2023-01-20T08:04:38.092Z,71.10
2023-01-20T08:07:08.406Z,70.90
2023-01-20T08:09:38.838Z,71.00
2023-01-20T08:12:11.488Z,70.90
2023-01-20T08:14:43.145Z,70.60
2023-01-20T08:17:13.573Z,70.50
2023-01-20T08:19:43.112Z,70.30
2023-01-20T08:22:11.268Z,70.00
2023-01-20T08:24:39.414Z,70.00
2023-01-20T08:27:07.558Z,69.90
2023-01-20T08:29:38.456Z,69.90
2023-01-20T08:32:07.091Z,70.10
2023-01-20T08:34:40.933Z,70.00
2023-01-20T08:37:14.534Z,70.10
2023-01-20T08:39:42.688Z,69.90
2023-01-20T08:42:11.953Z,70.10
2023-01-20T08:44:46.045Z,69.90
2023-01-20T08:47:14.188Z,69.80
2023-01-20T08:49:43.033Z,69.90
2023-01-20T08:52:16.409Z,69.70
2023-01-20T08:54:48.726Z,69.80
2023-01-20T08:57:17.067Z,69.60
2023-01-20T08:59:47.348Z,69.70
2023-01-20T09:02:16.852Z,69.60
2023-01-20T09:04:46.578Z,69.40
2023-01-20T09:07:19.763Z,69.30
2023-01-20T09:09:49.431Z,69.30
2023-01-20T09:12:18.774Z,69.20
2023-01-20T09:14:46.894Z,69.00
2023-01-20T09:17:15.070Z,69.00
2023-01-20T09:19:43.201Z,68.90
2023-01-20T09:22:11.351Z,69.00
2023-01-20T09:24:41.470Z,68.80
2023-01-20T09:27:09.619Z,68.60
2023-01-20T09:29:37.763Z,68.10
2023-01-20T09:32:06.233Z,68.20
2023-01-20T09:34:35.939Z,67.90
2023-01-20T09:37:18.445Z,68.00
2023-01-20T09:40:06.237Z,67.80
2023-01-20T09:43:03.075Z,67.90
2023-01-20T09:45:37.712Z,67.60
2023-01-20T09:48:29.512Z,67.70
2023-01-20T09:51:22.804Z,67.70
2023-01-20T09:54:04.857Z,67.50
2023-01-20T09:56:42.835Z,67.00
2023-01-20T09:59:19.816Z,67.10
2023-01-20T10:01:52.413Z,66.80
2023-01-20T10:04:29.931Z,66.60
2023-01-20T10:07:06.696Z,66.20
2023-01-20T10:09:44.376Z,65.80
2023-01-20T10:12:19.577Z,65.70
2023-01-20T10:14:57.162Z,65.70
2023-01-20T10:17:34.046Z,65.50
2023-01-20T10:20:09.172Z,65.30
2023-01-20T10:22:48.599Z,65.30
2023-01-20T10:25:22.722Z,65.20
2023-01-20T10:27:57.495Z,65.10
2023-01-20T10:30:32.383Z,65.20
2023-01-20T10:33:09.287Z,65.40
2023-01-20T10:35:41.029Z,65.30
2023-01-20T10:38:29.122Z,65.40
2023-01-20T10:41:07.893Z,65.50
2023-01-20T10:43:41.953Z,65.30
2023-01-20T10:46:33.819Z,65.00
2023-01-20T10:49:19.789Z,64.70
2023-01-20T10:51:59.992Z,64.80
2023-01-20T10:54:38.033Z,64.90
2023-01-20T10:57:11.801Z,64.70
2023-01-20T10:59:44.749Z,64.80
2023-01-20T11:02:18.719Z,64.40
2023-01-20T11:04:50.720Z,64.50
2023-01-20T11:07:19.877Z,64.40
2023-01-20T11:09:49.325Z,64.60
2023-01-20T11:12:20.400Z,64.50
2023-01-20T11:14:50.433Z,64.40
2023-01-20T11:17:20.971Z,64.30
2023-01-20T11:19:52.214Z,64.20
2023-01-20T11:22:26.846Z,63.40
2023-01-20T11:24:58.837Z,63.30
2023-01-20T11:27:29.997Z,63.30
2023-01-20T11:30:03.913Z,62.90
2023-01-20T11:32:35.071Z,62.80
2023-01-20T11:35:20.875Z,63.10
2023-01-20T11:37:49.303Z,63.10
2023-01-20T11:40:22.320Z,63.00
2023-01-20T11:42:52.792Z,63.10
2023-01-20T11:45:28.722Z,63.10
2023-01-20T11:48:07.124Z,63.30
2023-01-20T11:50:39.322Z,63.70
2023-01-20T11:53:23.405Z,64.00
2023-01-20T11:55:54.573Z,64.20
2023-01-20T11:58:25.132Z,64.40
2023-01-20T12:01:02.095Z,64.40
2023-01-20T12:04:15.175Z,64.40
2023-01-20T12:06:52.516Z,64.50
2023-01-20T12:09:24.291Z,64.50
2023-01-20T12:11:57.571Z,64.30
2023-01-20T12:14:30.133Z,64.50
2023-01-20T12:17:23.904Z,64.20
2023-01-20T12:20:07.612Z,64.60
2023-01-20T12:22:44.118Z,64.90
2023-01-20T12:25:19.967Z,65.00
2023-01-20T12:27:54.730Z,64.80
2023-01-20T12:30:39.284Z,65.10
2023-01-20T12:33:21.912Z,65.00
2023-01-20T12:36:25.757Z,65.20
2023-01-20T12:39:11.755Z,65.20
2023-01-20T12:41:57.521Z,65.20
2023-01-20T12:44:32.595Z,64.60
2023-01-20T12:47:08.889Z,64.30
2023-01-20T12:49:53.003Z,64.20
2023-01-20T12:52:31.993Z,63.80
2023-01-20T12:55:17.281Z,63.70
2023-01-20T12:58:08.386Z,63.20
2023-01-20T13:00:56.828Z,62.70
2023-01-20T13:03:47.448Z,62.90
2023-01-20T13:06:37.225Z,62.70
2023-01-20T13:09:18.816Z,62.10
2023-01-20T13:11:58.497Z,62.00
2023-01-20T13:14:32.439Z,61.40
2023-01-20T13:17:07.782Z,60.90
2023-01-20T13:19:39.549Z,60.40
2023-01-20T13:22:14.397Z,59.60
2023-01-20T13:24:45.985Z,60.10
2023-01-20T13:27:15.335Z,59.90
2023-01-20T13:29:56.121Z,60.30
2023-01-20T13:32:34.910Z,60.50
2023-01-20T13:35:04.283Z,60.80
2023-01-20T13:37:38.711Z,60.80
2023-01-20T13:40:51.896Z,61.00
2023-01-20T13:46:49.836Z,61.20
2023-01-20T13:49:26.866Z,61.70
2023-01-20T13:51:55.173Z,61.50
2023-01-20T13:54:43.997Z,61.10
2023-01-20T13:57:45.362Z,60.70
2023-01-20T14:00:18.634Z,60.10
2023-01-20T14:02:48.861Z,60.20
2023-01-20T14:05:32.375Z,59.70
2023-01-20T14:08:01.146Z,59.20
2023-01-20T14:10:30.949Z,59.10
2023-01-20T14:12:59.069Z,58.90
2023-01-20T14:15:41.139Z,58.60
2023-01-20T14:18:17.391Z,58.50
2023-01-20T14:21:03.428Z,57.90
2023-01-20T14:23:39.794Z,57.90
2023-01-20T14:26:12.510Z,57.10
2023-01-20T14:28:49.380Z,57.40
2023-01-20T14:31:20.374Z,57.10
2023-01-20T14:33:53.185Z,56.90
2023-01-20T14:36:22.784Z,56.50
2023-01-20T14:38:58.346Z,56.10
2023-01-20T14:41:36.640Z,55.60
2023-01-20T14:44:05.080Z,55.40
2023-01-20T14:46:35.217Z,55.00
2023-01-20T14:49:05.134Z,54.80
2023-01-20T14:51:34.928Z,55.10
2023-01-20T14:54:31.737Z,54.90
2023-01-20T14:57:05.248Z,55.10
2023-01-20T14:59:33.412Z,54.90
2023-01-20T15:02:06.939Z,54.90
2023-01-20T15:04:39.188Z,55.10
2023-01-20T15:07:07.476Z,55.40
2023-01-20T15:09:36.697Z,55.60
2023-01-20T15:12:42.684Z,56.00
2023-01-20T15:15:21.952Z,56.30
2023-01-20T15:18:19.585Z,56.70
2023-01-20T15:20:50.705Z,56.80
2023-01-20T15:23:22.989Z,56.70
2023-01-20T15:25:53.704Z,56.60
2023-01-20T15:28:25.765Z,56.80
2023-01-20T15:30:56.956Z,56.70
2023-01-20T15:33:26.030Z,56.50
2023-01-20T15:35:58.747Z,56.70
2023-01-20T15:38:31.596Z,56.70
2023-01-20T15:40:59.634Z,56.80
2023-01-20T15:43:27.933Z,56.90
2023-01-20T15:45:57.405Z,56.90
2023-01-20T15:48:25.544Z,57.00
2023-01-20T15:50:53.735Z,57.20
2023-01-20T15:53:21.920Z,57.50
2023-01-20T15:55:51.823Z,57.90
2023-01-20T15:58:26.797Z,58.20
2023-01-20T16:00:56.190Z,58.20
2023-01-20T16:03:26.737Z,58.60
2023-01-20T16:05:56.962Z,58.60
2023-01-20T16:08:30.657Z,58.60
2023-01-20T16:10:58.787Z,58.60
2023-01-20T16:13:26.919Z,58.80
2023-01-20T16:15:55.401Z,58.80
2023-01-20T16:18:24.964Z,58.70
2023-01-20T16:20:53.064Z,59.00
2023-01-20T16:23:21.243Z,58.90
2023-01-20T16:25:52.098Z,59.10
2023-01-20T16:28:24.119Z,59.20
2023-01-20T16:30:54.137Z,59.20
2023-01-20T16:33:25.786Z,59.40
2023-01-20T16:35:56.905Z,59.40
2023-01-20T16:38:26.465Z,59.40
2023-01-20T16:41:00.387Z,59.30
2023-01-20T16:43:29.263Z,59.40
2023-01-20T16:45:57.728Z,59.40
2023-01-20T16:48:27.697Z,59.70
2023-01-20T16:50:55.845Z,59.60
2023-01-20T16:53:24.042Z,59.50
2023-01-20T16:55:52.208Z,59.50
2023-01-20T16:58:20.354Z,59.50
2023-01-20T17:00:48.574Z,59.70
2023-01-20T17:03:16.809Z,59.80
2023-01-20T17:05:46.326Z,59.80
2023-01-20T17:08:14.538Z,59.70
2023-01-20T17:10:48.576Z,59.70
2023-01-20T17:13:16.719Z,59.70
2023-01-20T17:15:44.859Z,59.90
2023-01-20T17:18:12.989Z,60.10
2023-01-20T17:20:41.320Z,59.80
2023-01-20T17:23:10.841Z,60.00
2023-01-20T17:25:39.022Z,60.00
2023-01-20T17:28:07.239Z,59.70
2023-01-20T17:30:35.432Z,59.80
2023-01-20T17:33:03.579Z,59.90
2023-01-20T17:35:31.839Z,60.10
2023-01-20T17:37:59.991Z,60.10
2023-01-20T17:40:29.493Z,60.10
2023-01-20T17:42:57.637Z,60.20
2023-01-20T17:45:25.971Z,60.20
2023-01-20T17:47:54.189Z,60.30
2023-01-20T17:50:22.331Z,60.30
2023-01-20T17:52:51.808Z,60.30
2023-01-20T17:55:22.454Z,60.20
2023-01-20T17:57:56.105Z,60.10
2023-01-20T18:00:28.235Z,60.40
2023-01-20T18:02:57.574Z,60.40
2023-01-20T18:05:28.962Z,60.20
2023-01-20T18:07:57.285Z,60.50
2023-01-20T18:10:28.805Z,60.60
2023-01-20T18:12:58.375Z,60.80
2023-01-20T18:15:26.533Z,60.80
2023-01-20T18:17:54.678Z,60.90
2023-01-20T18:20:23.024Z,61.00
2023-01-20T18:22:51.388Z,61.00
2023-01-20T18:25:19.771Z,61.20
2023-01-20T18:27:47.883Z,61.20
2023-01-20T18:30:18.407Z,61.40
2023-01-20T18:32:46.887Z,61.50
2023-01-20T18:35:15.042Z,61.60
2023-01-20T18:37:43.162Z,61.70
2023-01-20T18:40:12.566Z,61.70
2023-01-20T18:42:40.729Z,61.70
2023-01-20T18:45:10.075Z,61.90
2023-01-20T18:47:39.917Z,61.90
2023-01-20T18:50:08.595Z,62.30
2023-01-20T18:52:36.819Z,62.50
2023-01-20T18:55:05.380Z,62.60
2023-01-20T18:57:33.547Z,62.90
2023-01-20T19:00:01.774Z,62.90
2023-01-20T19:02:29.987Z,63.00
2023-01-20T19:04:59.769Z,63.00
2023-01-20T19:07:28.095Z,63.00
2023-01-20T19:09:56.684Z,63.20
2023-01-20T19:12:24.855Z,63.30
2023-01-20T19:14:54.752Z,63.30
2023-01-20T19:17:22.915Z,63.30
2023-01-20T19:19:51.038Z,63.50
2023-01-20T19:22:20.555Z,63.40
2023-01-20T19:24:48.739Z,63.30
2023-01-20T19:27:16.887Z,63.20
2023-01-20T19:29:45.039Z,63.20
2023-01-20T19:32:13.274Z,63.10
2023-01-20T19:34:43.744Z,63.10
2023-01-20T19:37:11.899Z,63.10
2023-01-20T19:39:41.405Z,63.00
2023-01-20T19:42:09.524Z,62.90
2023-01-20T19:44:37.649Z,62.90
2023-01-20T19:47:05.820Z,62.90
2023-01-20T19:49:33.943Z,63.00
2023-01-20T19:52:02.121Z,63.00
2023-01-20T19:54:30.985Z,63.10
2023-01-20T19:57:00.623Z,62.90
2023-01-20T19:59:28.779Z,62.80
2023-01-20T20:01:56.987Z,62.90
2023-01-20T20:04:25.451Z,62.70
2023-01-20T20:06:53.732Z,62.80
2023-01-20T20:09:26.017Z,62.90
2023-01-20T20:11:56.167Z,63.20
2023-01-20T20:14:27.289Z,63.40
2023-01-20T20:16:55.432Z,63.50
2023-01-20T20:19:23.727Z,63.70
2023-01-20T20:21:52.213Z,63.60
2023-01-20T20:24:20.691Z,63.70
2023-01-20T20:26:49.576Z,63.50
2023-01-20T20:29:19.584Z,63.50
2023-01-20T20:31:49.218Z,63.50
2023-01-20T20:34:19.251Z,63.50
2023-01-20T20:36:47.931Z,63.40
2023-01-20T20:39:18.845Z,63.50
2023-01-20T20:41:47.180Z,63.60
2023-01-20T20:44:15.498Z,63.60
2023-01-20T20:46:44.359Z,63.40
2023-01-20T20:49:15.970Z,63.50
2023-01-20T20:51:44.159Z,63.50
2023-01-20T20:54:13.193Z,63.50
2023-01-20T20:56:41.531Z,63.50
2023-01-20T20:59:10.441Z,63.30
2023-01-20T21:01:44.478Z,63.40
2023-01-20T21:04:18.081Z,63.40
2023-01-20T21:06:48.875Z,63.50
2023-01-20T21:09:19.359Z,63.40
2023-01-20T21:11:48.431Z,63.20
2023-01-20T21:14:19.142Z,63.40
2023-01-20T21:16:47.304Z,63.30
2023-01-20T21:19:16.987Z,63.30
2023-01-20T21:21:45.131Z,63.70
2023-01-20T21:24:13.942Z,63.70
2023-01-20T21:26:43.124Z,63.90
2023-01-20T21:29:12.465Z,63.90
2023-01-20T21:31:40.700Z,63.80
2023-01-20T21:34:08.940Z,63.30
2023-01-20T21:36:41.535Z,63.40
2023-01-20T21:39:13.276Z,63.10
2023-01-20T21:41:41.717Z,63.10
2023-01-20T21:44:29.820Z,62.70
2023-01-20T21:46:58.680Z,62.60
2023-01-20T21:49:43.937Z,62.50
2023-01-20T21:52:33.037Z,62.50
2023-01-20T21:55:01.277Z,62.50
2023-01-20T21:57:30.154Z,62.40
2023-01-20T21:59:58.243Z,62.50
2023-01-20T22:02:29.601Z,62.70
2023-01-20T22:04:57.716Z,62.80
2023-01-20T22:07:27.674Z,62.70
2023-01-20T22:09:58.041Z,63.10
2023-01-20T22:12:26.523Z,63.20
2023-01-20T22:14:54.645Z,63.30
2023-01-20T22:17:22.778Z,63.40
2023-01-20T22:19:50.939Z,63.50
2023-01-20T22:22:19.803Z,63.50
2023-01-20T22:24:49.304Z,63.30
2023-01-20T22:27:17.512Z,63.40
2023-01-20T22:29:45.667Z,63.40
2023-01-20T22:32:14.220Z,63.30
2023-01-20T22:34:42.402Z,63.50
2023-01-20T22:37:10.577Z,63.60
2023-01-20T22:39:38.697Z,63.30
2023-01-20T22:42:08.312Z,63.70
2023-01-20T22:44:36.442Z,63.90
2023-01-20T22:47:05.859Z,64.10
2023-01-20T22:49:33.986Z,64.20
2023-01-20T22:52:02.167Z,64.30
2023-01-20T22:54:30.282Z,64.20
2023-01-20T22:56:58.443Z,64.00
2023-01-20T22:59:27.985Z,64.00
2023-01-20T23:01:56.152Z,64.00
2023-01-20T23:04:24.934Z,64.00
2023-01-20T23:06:53.194Z,63.90
2023-01-20T23:09:21.584Z,64.30
2023-01-20T23:11:50.688Z,64.50
2023-01-20T23:14:38.822Z,64.90
2023-01-20T23:17:08.408Z,65.00
2023-01-20T23:19:36.532Z,65.00
2023-01-20T23:22:04.689Z,65.00
2023-01-20T23:24:32.805Z,65.10
2023-01-20T23:27:00.892Z,65.10
2023-01-20T23:29:29.202Z,65.30
2023-01-20T23:31:58.094Z,65.30
2023-01-20T23:34:27.751Z,65.40
2023-01-20T23:36:55.955Z,65.30
2023-01-20T23:39:24.113Z,65.40
2023-01-20T23:41:53.016Z,65.60
2023-01-20T23:44:21.131Z,65.60
2023-01-20T23:46:49.260Z,65.60
2023-01-20T23:49:17.439Z,65.50
2023-01-20T23:51:46.997Z,65.40
2023-01-20T23:54:15.194Z,65.30
2023-01-20T23:56:43.278Z,65.20
2023-01-20T23:59:11.405Z,65.20
